createdAt,value
2023-03-29T00:02:34.333Z,4.30
2023-03-29T00:12:37.997Z,3.70
2023-03-29T00:22:46.815Z,3.70
2023-03-29T00:32:50.136Z,4.10
2023-03-29T00:42:56.233Z,3.75
2023-03-29T00:53:03.566Z,3.17
2023-03-29T01:03:13.907Z,3.67
2023-03-29T01:13:26.286Z,3.70
2023-03-29T01:23:51.243Z,3.40
2023-03-29T01:34:04.474Z,3.77
2023-03-29T01:44:12.103Z,3.55
2023-03-29T01:54:19.833Z,3.22
2023-03-29T02:04:29.072Z,3.80
2023-03-29T02:14:33.424Z,3.20
2023-03-29T02:24:38.181Z,3.00
2023-03-29T02:44:53.520Z,3.33
2023-03-29T02:55:00.473Z,3.13
2023-03-29T03:05:03.774Z,3.20
2023-03-29T03:15:09.725Z,2.47
2023-03-29T03:25:16.815Z,2.95
2023-03-29T03:35:21.608Z,2.93
2023-03-29T03:45:24.759Z,3.35
2023-03-29T03:55:51.190Z,3.40
2023-03-29T04:06:01.671Z,3.10
2023-03-29T04:16:14.916Z,3.27
2023-03-29T04:26:18.364Z,3.40
2023-03-29T04:36:29.056Z,3.33
2023-03-29T04:46:33.349Z,3.33
2023-03-29T04:56:56.838Z,3.40
2023-03-29T05:07:11.768Z,3.67
2023-03-29T05:17:16.372Z,4.10
2023-03-29T05:27:22.908Z,3.47
2023-03-29T05:37:40.309Z,3.83
2023-03-29T05:47:43.543Z,3.70
2023-03-29T05:57:48.010Z,3.67
2023-03-29T06:07:52.117Z,4.68
2023-03-29T06:18:19.248Z,4.25
2023-03-29T06:28:24.006Z,4.00
2023-03-29T06:38:28.751Z,4.77
2023-03-29T06:48:31.790Z,4.27
2023-03-29T06:58:36.693Z,4.60
2023-03-29T07:08:52.406Z,4.65
2023-03-29T07:19:33.259Z,4.95
2023-03-29T07:29:58.184Z,4.90
2023-03-29T07:40:09.011Z,4.80
2023-03-29T07:50:32.641Z,5.55
2023-03-29T08:00:40.177Z,5.85
2023-03-29T08:11:03.588Z,5.43
2023-03-29T08:21:17.202Z,6.55
2023-03-29T08:31:24.237Z,6.35
2023-03-29T08:41:41.674Z,6.13
2023-03-29T08:51:48.165Z,7.63
2023-03-29T09:01:57.011Z,6.07
2023-03-29T09:12:12.075Z,6.57
2023-03-29T09:22:29.807Z,6.65
2023-03-29T09:32:39.170Z,6.85
2023-03-29T09:42:45.953Z,7.15
2023-03-29T09:52:50.673Z,7.57
2023-03-29T10:03:00.913Z,7.75
2023-03-29T10:13:23.733Z,8.10
2023-03-29T10:23:32.551Z,8.13
2023-03-29T10:33:37.725Z,6.85
2023-03-29T10:43:47.203Z,6.63
2023-03-29T10:53:50.185Z,6.65
2023-03-29T11:04:16.987Z,6.32
2023-03-29T11:14:35.748Z,6.00
2023-03-29T11:24:53.976Z,6.22
2023-03-29T11:35:08.152Z,6.68
2023-03-29T11:45:18.923Z,6.90
2023-03-29T11:55:26.227Z,5.75
2023-03-29T12:05:43.720Z,5.32
2023-03-29T12:15:58.953Z,6.25
2023-03-29T12:26:10.757Z,5.55
2023-03-29T12:36:36.507Z,5.20
2023-03-29T12:47:30.161Z,4.35
2023-03-29T12:57:43.156Z,4.22
2023-03-29T13:07:48.471Z,4.47
2023-03-29T13:18:02.634Z,4.20
2023-03-29T13:28:14.309Z,3.50
2023-03-29T13:38:21.988Z,3.45
2023-03-29T13:48:29.370Z,3.17
2023-03-29T13:58:40.257Z,3.30
2023-03-29T14:08:45.837Z,4.20
2023-03-29T14:18:51.444Z,3.47
2023-03-29T14:28:58.048Z,3.50
2023-03-29T14:39:05.592Z,4.07
2023-03-29T14:49:13.663Z,3.65
2023-03-29T14:59:27.229Z,3.60
2023-03-29T15:09:35.180Z,2.53
2023-03-29T15:19:38.366Z,2.17
2023-03-29T15:29:45.312Z,3.38
2023-03-29T15:39:49.693Z,2.50
2023-03-29T15:49:54.221Z,2.25
2023-03-29T16:00:05.703Z,2.33
2023-03-29T16:10:17.014Z,3.00
2023-03-29T16:20:20.833Z,2.38
2023-03-29T16:30:25.990Z,2.57
2023-03-29T16:40:38.446Z,2.50
2023-03-29T16:50:43.289Z,2.50
2023-03-29T17:00:51.918Z,2.72
2023-03-29T17:10:57.774Z,3.40
2023-03-29T17:21:07.724Z,3.00
2023-03-29T17:31:12.781Z,5.10
2023-03-29T17:41:17.420Z,4.90
2023-03-29T17:51:23.675Z,5.53
2023-03-29T18:01:27.603Z,5.63
2023-03-29T18:11:32.448Z,3.97
2023-03-29T18:21:35.520Z,3.92
2023-03-29T18:31:39.934Z,4.35
2023-03-29T18:41:42.963Z,3.80
2023-03-29T18:51:47.683Z,4.03
2023-03-29T19:01:51.173Z,3.40
2023-03-29T19:11:55.749Z,4.00
2023-03-29T19:22:00.544Z,3.85
2023-03-29T19:32:06.841Z,3.65
2023-03-29T19:42:09.854Z,4.18
2023-03-29T19:52:14.313Z,4.72
2023-03-29T20:02:17.784Z,5.18
2023-03-29T20:12:22.195Z,4.78
2023-03-29T20:22:26.255Z,5.95
2023-03-29T20:32:31.078Z,5.63
2023-03-29T20:42:34.634Z,5.10
2023-03-29T20:52:39.126Z,4.95
2023-03-29T21:02:42.263Z,5.03
2023-03-29T21:12:46.844Z,5.07
2023-03-29T21:22:49.850Z,5.78
2023-03-29T21:32:54.340Z,4.22
2023-03-29T21:42:57.336Z,4.47
2023-03-29T21:53:02.314Z,4.53
2023-03-29T22:03:05.450Z,4.90
2023-03-29T22:13:09.908Z,4.63
2023-03-29T22:23:13.339Z,3.60
2023-03-29T22:33:17.661Z,4.10
2023-03-29T22:43:21.525Z,3.50
2023-03-29T22:53:26.144Z,3.50
2023-03-29T23:03:29.113Z,3.63
2023-03-29T23:13:35.172Z,4.18
2023-03-29T23:23:38.302Z,3.00
2023-03-29T23:33:43.463Z,3.42
2023-03-29T23:43:50.116Z,2.90
2023-03-29T23:53:54.708Z,2.97
